• Join FlightAware (Why Join?)
  • Login
  • US Flag 
04:12AM EDT


 

Airport Tracker/Info


-or-


 

Live Flight TrackerFlight Track Log ✈ EJA929 ✈ 06-Feb-2014 ✈ KOKC - KBNA

Flight Track Log - Related Links

Times and Time Zones

All times are in EST time to prevent confusion due to time zone crossing. See the EJA929 flight status page for this flight to view local times or setup timezone preferences in your user account.

Time Position Orientation Groundspeed Altitude Reporting Facility
EST Latitude Longitude Course Direction KTS MPH feet Rate Location/Type
01:55PM 35.4061 -97.5883 12° North 188 216 2,200  Level Fort Worth Center
01:56PM 35.4369 -97.5806 12° North 185 213 4,300 2,880 Climbing Fort Worth Center
01:57PM 35.4789 -97.5247 47° Northeast 252 290 7,000 2,700 Climbing Fort Worth Center
01:58PM 35.5169 -97.4333 63° Northeast 285 328 9,900 2,160 Climbing Fort Worth Center
01:59PM 35.5561 -97.3408 62° Northeast 338 389 11,500 1,980 Climbing Fort Worth Center
02:00PM 35.6156 -97.2000 63° Northeast 382 440 14,100 2,340 Climbing Fort Worth Center
02:01PM 35.6675 -97.0764 63° Northeast 406 467 16,300 1,800 Climbing Fort Worth Center
02:02PM 35.7206 -96.9489 63° Northeast 419 482 17,900 1,680 Climbing Fort Worth Center
02:03PM 35.7750 -96.8181 63° Northeast 426 490 19,800 2,040 Climbing Fort Worth Center
02:04PM 35.8322 -96.6806 63° Northeast 444 511 22,200 2,040 Climbing Fort Worth Center
02:05PM 35.8914 -96.5397 63° Northeast 459 528 24,100 1,740 Climbing Fort Worth Center
02:06PM 35.9542 -96.3906 62° Northeast 482 555 25,900 1,860 Climbing Fort Worth Center
02:07PM 36.0231 -96.2164 64° Northeast 510 587 28,000 1,860 Climbing Fort Worth Center
02:08PM 36.0878 -96.0569 63° Northeast 516 594 29,800 1,800 Climbing Fort Worth Center
02:09PM 36.1542 -95.8942 63° Northeast 527 606 31,800 1,860 Climbing Fort Worth Center
02:10PM 36.2236 -95.7308 62° Northeast 535 616 33,700 1,440 Climbing Fort Worth Center
02:11PM 36.3028 -95.5692 59° Northeast 544 626 34,800 660 Climbing Fort Worth Center
02:12PM 36.3903 -95.3881 59° Northeast 564 649 35,100 840 Climbing Fort Worth Center
02:13PM 36.4764 -95.2064 59° Northeast 587 676 36,600 1,500 Climbing Fort Worth Center
02:14PM 36.5564 -95.0386 59° Northeast 568 654 38,200 1,260 Climbing Fort Worth Center
02:15PM 36.6356 -94.8714 59° Northeast 561 646 39,300 1,020 Climbing Fort Worth Center
02:16PM 36.7150 -94.7056 59° Northeast 557 641 40,400 660 Climbing Fort Worth Center
02:18PM 36.8428 -94.4375 59° Northeast 557 641 41,000 180 Climbing Kansas City Center
02:19PM 36.9242 -94.2631 60° Northeast 573 659 41,000  Level Kansas City Center
02:20PM 37.0069 -94.0844 60° Northeast 588 677 41,000  Level Kansas City Center
02:21PM 37.0925 -93.9033 59° Northeast 598 688 41,000  Level Kansas City Center
02:22PM 37.1800 -93.7094 60° Northeast 602 693 41,000  Level Kansas City Center
02:23PM 37.2644 -93.5267 60° Northeast 604 695 41,000  Level Kansas City Center
02:24PM 37.3686 -93.3103 59° Northeast 602 693 41,000  Level Kansas City Center
02:25PM 37.4636 -93.1347 56° Northeast 605 696 41,000  Level Kansas City Center
02:26PM 37.5606 -92.9644 54° Northeast 600 690 41,000  Level Kansas City Center
02:27PM 37.6547 -92.7903 56° Northeast 599 689 41,000  Level Kansas City Center
02:28PM 37.7397 -92.6300 56° Northeast 605 696 41,000  Level Kansas City Center
02:29PM 37.8536 -92.4208 55° Northeast 603 694 41,000  Level Kansas City Center
02:30PM 37.9492 -92.2436 56° Northeast 607 699 41,000  Level Kansas City Center
02:31PM 38.0414 -92.0644 57° Northeast 598 688 41,000  Level Kansas City Center
02:32PM 38.1356 -91.8878 56° Northeast 602 693 41,000  Level Kansas City Center
02:33PM 38.2286 -91.7106 56° Northeast 601 692 41,000  Level Kansas City Center
02:34PM 38.3219 -91.5319 56° Northeast 603 694 41,000  Level Kansas City Center
02:35PM 38.4097 -91.3622 57° Northeast 601 692 41,000  Level Kansas City Center
02:36PM 38.5203 -91.1494 56° Northeast 601 692 41,000  Level Kansas City Center
02:37PM 38.6125 -90.9683 57° Northeast 605 696 41,000  Level Kansas City Center
02:38PM 38.7028 -90.7861 58° Northeast 605 696 41,000  Level Kansas City Center
02:39PM 38.7703 -90.5717 68° East 615 708 41,000  Level Kansas City Center
02:40PM 38.8250 -90.3614 71° East 619 712 41,000  Level Kansas City Center
02:41PM 38.8831 -90.1561 70° East 614 707 41,000  Level Kansas City Center
02:42PM 38.9361 -89.9456 72° East 617 710 41,000  Level Kansas City Center
02:43PM 38.9914 -89.7356 71° East 619 712 41,000  Level Kansas City Center
02:44PM 39.0447 -89.5267 72° East 617 710 41,000  Level Kansas City Center
02:45PM 39.0983 -89.3175 72° East 618 711 41,000  Level Kansas City Center
02:46PM 39.1519 -89.1072 72° East 618 711 41,000  Level Kansas City Center
02:47PM 39.2200 -88.8556 71° East 621 715 41,000  Level Kansas City Center
02:49PM 39.2725 -88.6456 72° East 619 712 41,000  Level Kansas City Center
02:50PM 39.3275 -88.4253 72° East 618 711 41,000  Level Kansas City Center
02:51PM 39.3789 -88.2128 73° East 616 709 41,000  Level Kansas City Center
02:51PM 39.4164 -88.0589 72° East 616 709 41,000  Level Indianapolis Center
02:52PM 39.4669 -87.8478 73° East 616 709 41,000  Level Indianapolis Center
02:53PM 39.5186 -87.6383 72° East 615 708 41,000  Level Indianapolis Center
02:55PM 39.5786 -87.3836 73° East 618 711 41,000  Level Indianapolis Center
02:56PM 39.6400 -87.1767 69° East 618 711 41,000  Level Indianapolis Center
02:57PM 39.7114 -86.9744 65° Northeast 617 710 41,000  Level Indianapolis Center
02:57PM 39.7389 -86.8939 66° East 617 710 41,000  Level Indianapolis Center
02:58PM 39.8086 -86.6864 66° East 622 716 41,000  Level Indianapolis Center
02:59PM 39.8789 -86.4792 66° East 621 715 41,000  Level Indianapolis Center
03:00PM 39.9506 -86.2694 66° East 619 712 41,000  Level Indianapolis Center
03:01PM 40.0211 -86.0603 66° East 622 716 41,000  Level Indianapolis Center
03:02PM 40.1036 -85.8103 67° East 624 718 41,000  Level Indianapolis Center
03:03PM 40.1722 -85.6008 67° East 627 722 41,000  Level Indianapolis Center
03:04PM 40.2417 -85.3922 66° East 627 722 41,000  Level Indianapolis Center
03:05PM 40.3086 -85.1825 67° East 628 723 41,000  Level Indianapolis Center
03:06PM 40.3761 -84.9725 67° East 627 722 41,000  Level Indianapolis Center
03:07PM 40.4497 -84.7425 67° East 627 722 41,000  Level Indianapolis Center
03:08PM 40.5167 -84.5308 67° East 626 720 41,000  Level Indianapolis Center
03:09PM 40.5833 -84.3178 68° East 628 723 41,000  Level Indianapolis Center
03:10PM 40.6497 -84.1050 68° East 627 722 41,000  Level Indianapolis Center
03:11PM 40.7169 -83.8925 67° East 627 722 41,000  Level Indianapolis Center
03:13PM 40.7967 -83.6319 68° East 633 728 41,000  Level Indianapolis Center
03:14PM 40.8622 -83.4119 68° East 630 725 41,000  Level Indianapolis Center
03:14PM 40.8900 -83.2828 74° East 630 725 41,000  Level Cleveland Center
03:15PM 40.9144 -83.0311 83° East 627 722 41,000  Level Cleveland Center
03:16PM 40.9322 -82.7983 84° East 631 726 41,000  Level Cleveland Center
03:17PM 40.9517 -82.5675 84° East 629 724 41,000  Level Cleveland Center
03:18PM 40.9722 -82.2944 84° East 635 731 41,000  Level Cleveland Center
03:19PM 40.9903 -82.0633 84° East 631 726 41,000  Level Cleveland Center
03:20PM 41.0067 -81.8306 85° East 636 732 41,000  Level Cleveland Center
03:21PM 41.0247 -81.6008 84° East 633 728 41,000  Level Cleveland Center
03:23PM 41.0389 -81.3747 85° East 623 717 41,000  Level Cleveland Center
03:24PM 41.0567 -81.1050 85° East 629 724 41,000  Level Cleveland Center
03:25PM 41.0697 -80.8953 85° East 630 725 41,000  Level Cleveland Center
03:26PM 41.0828 -80.6631 86° East 631 726 41,000  Level Cleveland Center
03:27PM 41.0858 -80.3828 89° East 631 726 41,000  Level Cleveland Center
03:28PM 41.0858 -80.1483 90° East 631 726 41,000  Level Cleveland Center
03:29PM 41.0847 -79.9133 90° East 635 731 41,000 -360 Level Cleveland Center
03:30PM 41.0828 -79.6803 91° East 633 728 40,300 -840 Descending Cleveland Center
03:31PM 41.0814 -79.4447 90° East 636 732 39,300 -780 Descending Cleveland Center
03:32PM 41.0786 -79.2100 91° East 636 732 38,800 -1,020 Descending Cleveland Center
03:33PM 41.0775 -78.9722 90° East 641 738 37,300 -1,620 Descending Cleveland Center
03:34PM 41.0725 -78.6817 91° East 654 753 35,500 -1,560 Descending Cleveland Center
03:35PM 41.0669 -78.4408 92° East 656 755 34,100 -1,260 Descending Cleveland Center
03:36PM 41.0636 -78.1847 91° East 652 750 33,000 -540 Descending Cleveland Center
03:37PM 41.0589 -77.9447 91° East 656 755 33,000  Level Cleveland Center
03:38PM 41.0553 -77.7578 91° East 669 770 33,000  Level New York Center
03:39PM 41.0464 -77.5175 93° East 664 764 33,000  Level New York Center
03:40PM 41.0397 -77.2636 92° East 649 747 33,000 -1,500 Level New York Center
03:41PM 41.0333 -77.0347 92° East 629 724 30,100 -3,000 Descending New York Center
03:42PM 41.0275 -76.8222 92° East 605 696 27,000 -3,000 Descending New York Center
03:43PM 41.0375 -76.6222 86° East 552 635 24,200 -2,820 Descending New York Center
03:44PM 41.0506 -76.4417 84° East 526 605 21,400 -2,460 Descending New York Center
03:45PM 40.9800 -76.3039 124° Southeast 466 536 19,300 -1,800 Descending New York Center
03:46PM 40.9064 -76.1825 129° Southeast 431 496 17,900 -1,740 Descending New York Center
03:47PM 40.8675 -76.0286 108° East 438 504 15,900 -1,800 Descending New York Center
03:48PM 40.8325 -75.8778 107° East 433 498 14,300 -1,500 Descending New York Center
03:49PM 40.7967 -75.7381 109° East 421 484 13,000 -660 Descending New York Center
03:50PM 40.7664 -75.6153 108° East 396 456 13,000  Level New York Center
03:51PM 40.7303 -75.4758 109° East 391 450 13,000  Level New York Center
03:52PM 40.6856 -75.3467 115° Southeast 397 457 13,000  Level New York Center
03:53PM 40.6386 -75.2097 114° Southeast 383 441 13,000 -900 Level New York Center
03:54PM 40.6025 -75.1117 116° Southeast 344 396 11,300 -1,500 Descending New York Center
03:55PM 40.5633 -74.9917 113° Southeast 325 374 10,000 -660 Descending New York Center
03:56PM 40.5333 -74.8917 112° Southeast 309 356 10,000  Level New York Center
03:57PM 40.5036 -74.7889 111° Southeast 298 343 10,000  Level New York Center
03:58PM 40.4694 -74.6858 114° Southeast 298 343 10,000  Level New York Center
03:59PM 40.4375 -74.5831 112° Southeast 298 343 10,000 -300 Level New York Center
04:00PM 40.4492 -74.4775 82° East 283 326 9,400 -960 Descending New York Center
04:01PM 40.4667 -74.3828 76° East 289 333 8,100 -1,200 Descending New York Center
04:02PM 40.4847 -74.2719 78° East 290 334 7,000 -600 Descending New York Center
04:03PM 40.5000 -74.1800 78° East 290 334 7,000 -180 Level New York Center
04:04PM 40.5297 -74.0886 67° East 254 292 6,700 -660 Descending New York Center
04:05PM 40.5725 -74.0497 35° Northeast 218 251 5,700 -1,020 Descending New York Center
04:06PM 40.6172 -74.0108 33° Northeast 185 213 4,700 -900 Descending New York Center
04:07PM 40.6533 -73.9825 31° Northeast 173 199 3,900 -900 Descending New York Center
04:08PM 40.6939 -73.9461 34° Northeast 168 193 3,000 -840 Descending New York Center
04:09PM 40.7167 -73.8833 64° Northeast 160 184 2,100 -780 Descending New York TRACON
04:10PM 40.7333 -73.8333 66° East 147 169 1,300 -900 Descending New York TRACON
04:11PM 40.7667 -73.8333 360° North 129 148 400 -900 Descending New York TRACON
04:13PM 40.6468 -74.2497 249° West  Level Estimated
04:20PM 40.0174 -76.3334 249° West  Level Estimated
04:21PM 39.9244 -76.6279 248° West  Level Estimated
04:22PM 39.8308 -76.9216 248° West  Level Estimated
04:23PM 39.7363 -77.2145 247° West  Level Estimated
04:24PM 39.6412 -77.5066 247° West  Level Estimated
04:25PM 39.5453 -77.7979 247° West  Level Estimated
04:26PM 39.4487 -78.0883 247° West  Level Estimated
04:27PM 39.3514 -78.3780 247° West  Level Estimated
04:28PM 39.2533 -78.6668 246° West  Level Estimated
04:29PM 39.1546 -78.9549 246° West  Level Estimated
04:30PM 39.0551 -79.2421 246° West  Level Estimated
04:31PM 38.9549 -79.5285 246° West  Level Estimated
04:32PM 38.8541 -79.8141 246° West  Level Estimated
04:33PM 38.7525 -80.0989 246° West  Level Estimated
04:34PM 38.6503 -80.3829 245° Southwest  Level Estimated
04:35PM 38.5474 -80.6661 245° Southwest  Level Estimated
04:36PM 38.4437 -80.9485 245° Southwest  Level Estimated
04:37PM 38.3395 -81.2300 245° Southwest  Level Estimated
04:38PM 38.2345 -81.5108 245° Southwest  Level Estimated
04:39PM 38.1289 -81.7907 244° Southwest  Level Estimated
04:40PM 38.0226 -82.0698 244° Southwest  Level Estimated
04:41PM 37.9156 -82.3481 244° Southwest  Level Estimated
04:42PM 37.8080 -82.6256 244° Southwest  Level Estimated
04:43PM 37.6998 -82.9023 244° Southwest  Level Estimated
04:44PM 37.5909 -83.1782 244° Southwest  Level Estimated
04:45PM 37.4814 -83.4532 243° Southwest  Level Estimated
04:46PM 37.3712 -83.7275 243° Southwest  Level Estimated
04:47PM 37.2604 -84.0009 243° Southwest  Level Estimated
04:48PM 37.1490 -84.2736 243° Southwest  Level Estimated
04:49PM 37.0369 -84.5454 243° Southwest  Level Estimated
04:50PM 36.9243 -84.8165 243° Southwest  Level Estimated
04:51PM 36.8110 -85.0867 242° Southwest  Level Estimated
04:52PM 36.6971 -85.3561 242° Southwest  Level Estimated
04:53PM 36.5826 -85.6248 242° Southwest  Level Estimated
04:54PM 36.4675 -85.8926 242° Southwest  Level Estimated
04:55PM 36.3518 -86.1597 242° Southwest  Level Estimated
04:56PM 36.2355 -86.4259 242° Southwest  Level Estimated
04:57PM 36.1245 -86.6782 241° Southwest  Level Estimated
04:58PM 36.1245 -86.6782 302° West  Level Estimated
04:59PM 36.1245 -86.6782 302° West  Level Estimated
05:00PM 36.1245 -86.6782 302° West  Level Estimated
05:01PM 36.1245 -86.6782 302° West  Level Estimated
05:02PM 36.1245 -86.6782 302° West  Level Estimated
05:03PM 36.1245 -86.6782 302° West  Level Estimated
05:04PM 36.1245 -86.6782 302° West  Level Estimated
05:05PM 36.1245 -86.6782 302° West  Level Estimated
05:06PM 36.1245 -86.6782 302° West  Level Estimated
05:07PM 36.1245 -86.6782 302° West  Level Estimated
05:08PM 36.1245 -86.6782 302° West  Level Estimated
05:09PM 36.1245 -86.6782 302° West  Level Estimated
05:10PM 36.1245 -86.6782 302° West  Level Estimated
05:11PM 36.1245 -86.6782 302° West  Level Estimated
05:12PM 36.1245 -86.6782 302° West  Level Estimated
05:13PM 36.1245 -86.6782 302° West  Level Estimated
05:14PM 36.1245 -86.6782 302° West  Level Estimated
05:15PM 36.1245 -86.6782 302° West  Level Estimated
05:16PM 36.1245 -86.6782 302° West  Level Estimated
05:17PM 36.1245 -86.6782 302° West  Level Estimated
05:18PM 36.1245 -86.6782 302° West  Level Estimated
05:19PM 36.1245 -86.6782 302° West  Level Estimated
05:20PM 36.1245 -86.6782 302° West  Level Estimated
05:21PM 36.1245 -86.6782 302° West  Level Estimated
05:22PM 36.1245 -86.6782 302° West  Level Estimated
05:23PM 36.1245 -86.6782 302° West  Level Estimated
05:24PM 36.1245 -86.6782 302° West  Level Estimated
05:25PM 36.1245 -86.6782 302° West  Level Estimated
05:26PM 36.1245 -86.6782 302° West  Level Estimated
05:27PM 36.1245 -86.6782 302° West  Level Estimated
05:28PM 36.1245 -86.6782 302° West  Level Estimated
05:29PM 36.1245 -86.6782 302° West  Level Estimated
05:30PM 36.1245 -86.6782 302° West  Level Estimated
05:31PM 36.1245 -86.6782 302° West  Level Estimated
05:32PM 36.1245 -86.6782 302° West  Level Estimated
05:33PM 36.1245 -86.6782 302° West  Level Estimated
05:34PM 36.1245 -86.6782 302° West  Level Estimated
05:35PM 36.1245 -86.6782 302° West  Level Estimated
05:36PM 36.1245 -86.6782 302° West  Level Estimated
05:37PM 36.1245 -86.6782 302° West  Level Estimated
05:38PM 36.1245 -86.6782 302° West  Level Estimated
05:39PM 36.1245 -86.6782 302° West  Level Estimated
05:40PM 36.1245 -86.6782 302° West  Level Estimated
05:41PM 36.1245 -86.6782 302° West  Level Estimated
05:42PM 36.1245 -86.6782 302° West  Level Estimated
05:43PM 36.1245 -86.6782 302° West  Level Estimated
05:44PM 36.1245 -86.6782 302° West  Level Estimated
05:45PM 36.1245 -86.6782 302° West  Level Estimated
05:46PM 36.1245 -86.6782 302° West  Level Estimated
05:47PM 36.1245 -86.6782 302° West  Level Estimated
05:48PM 36.1245 -86.6782 302° West  Level Estimated
05:49PM 36.1245 -86.6782 302° West  Level Estimated
05:50PM 36.1245 -86.6782 302° West  Level Estimated
05:51PM 36.1245 -86.6782 302° West  Level Estimated
05:52PM 36.1245 -86.6782 302° West  Level Estimated
05:53PM 36.1245 -86.6782 302° West  Level Estimated
05:54PM 36.1245 -86.6782 302° West  Level Estimated
05:55PM 36.1245 -86.6782 302° West  Level Estimated
05:56PM 36.1245 -86.6782 302° West  Level Estimated
05:57PM 36.1245 -86.6782 302° West  Level Estimated
05:58PM 36.1245 -86.6782 302° West  Level Estimated
05:59PM 36.1245 -86.6782 302° West  Level Estimated
06:00PM 36.1245 -86.6782 302° West  Level Estimated
06:01PM 36.1245 -86.6782 302° West  Level Estimated
06:02PM 36.1245 -86.6782 302° West  Level Estimated
06:03PM 36.1245 -86.6782 302° West  Level Estimated
06:04PM 36.1245 -86.6782 302° West  Level Estimated
06:05PM 36.1245 -86.6782 302° West  Level Estimated
06:06PM 36.1245 -86.6782 302° West  Level Estimated
06:07PM 36.1245 -86.6782 302° West  Level Estimated
06:08PM 36.1245 -86.6782 302° West  Level Estimated
06:09PM 36.1245 -86.6782 302° West  Level Estimated
06:10PM 36.1245 -86.6782 302° West  Level Estimated
06:11PM 36.1245 -86.6782 302° West  Level Estimated
06:12PM 36.1245 -86.6782 302° West  Level Estimated
06:13PM 36.1245 -86.6782 302° West  Level Estimated
06:14PM 36.1245 -86.6782 302° West  Level Estimated
06:15PM 36.1245 -86.6782 302° West  Level Estimated
06:16PM 36.1245 -86.6782 302° West  Level Estimated
06:17PM 36.1245 -86.6782 302° West  Level Estimated
06:18PM 36.1245 -86.6782 302° West  Level Estimated